sensor_id;sensor_type;location;lat;lon;timestamp;P1;durP1;ratioP1;P2;durP2;ratioP2
54823;SDS011;40724;53.196;5.980;2022-11-30T00:00:04;17.33;;;13.43;;
54823;SDS011;40724;53.196;5.980;2022-11-30T00:02:31;13.95;;;10.23;;
54823;SDS011;40724;53.196;5.980;2022-11-30T00:04:57;15.70;;;9.70;;
54823;SDS011;40724;53.196;5.980;2022-11-30T00:07:23;13.80;;;10.07;;
54823;SDS011;40724;53.196;5.980;2022-11-30T00:09:49;17.48;;;10.70;;
54823;SDS011;40724;53.196;5.980;2022-11-30T00:12:16;14.32;;;9.27;;
54823;SDS011;40724;53.196;5.980;2022-11-30T00:14:42;13.77;;;9.73;;
54823;SDS011;40724;53.196;5.980;2022-11-30T00:17:08;11.60;;;8.50;;
54823;SDS011;40724;53.196;5.980;2022-11-30T00:19:34;13.88;;;9.18;;
54823;SDS011;40724;53.196;5.980;2022-11-30T00:22:00;11.15;;;8.20;;
54823;SDS011;40724;53.196;5.980;2022-11-30T00:24:26;11.05;;;9.15;;
54823;SDS011;40724;53.196;5.980;2022-11-30T00:26:52;11.52;;;8.80;;
54823;SDS011;40724;53.196;5.980;2022-11-30T00:29:19;13.63;;;9.52;;
54823;SDS011;40724;53.196;5.980;2022-11-30T00:31:45;15.32;;;11.38;;
54823;SDS011;40724;53.196;5.980;2022-11-30T00:34:11;15.82;;;10.90;;
54823;SDS011;40724;53.196;5.980;2022-11-30T00:36:37;15.23;;;10.57;;
54823;SDS011;40724;53.196;5.980;2022-11-30T00:39:03;19.02;;;11.88;;
54823;SDS011;40724;53.196;5.980;2022-11-30T00:41:29;14.88;;;10.55;;
54823;SDS011;40724;53.196;5.980;2022-11-30T00:43:56;18.67;;;11.43;;
54823;SDS011;40724;53.196;5.980;2022-11-30T00:46:22;14.45;;;10.68;;
54823;SDS011;40724;53.196;5.980;2022-11-30T00:48:48;20.27;;;11.90;;
54823;SDS011;40724;53.196;5.980;2022-11-30T00:51:14;21.42;;;13.48;;
54823;SDS011;40724;53.196;5.980;2022-11-30T00:53:40;18.85;;;13.48;;
54823;SDS011;40724;53.196;5.980;2022-11-30T00:56:07;19.27;;;12.82;;
54823;SDS011;40724;53.196;5.980;2022-11-30T00:58:33;17.45;;;14.05;;
54823;SDS011;40724;53.196;5.980;2022-11-30T01:00:59;18.52;;;14.10;;
54823;SDS011;40724;53.196;5.980;2022-11-30T01:03:26;17.60;;;13.07;;
54823;SDS011;40724;53.196;5.980;2022-11-30T01:05:52;17.05;;;12.30;;
54823;SDS011;40724;53.196;5.980;2022-11-30T01:08:18;21.48;;;13.57;;
54823;SDS011;40724;53.196;5.980;2022-11-30T01:10:44;17.13;;;12.13;;
54823;SDS011;40724;53.196;5.980;2022-11-30T01:13:13;18.33;;;12.63;;
54823;SDS011;40724;53.196;5.980;2022-11-30T01:15:41;17.08;;;12.27;;
54823;SDS011;40724;53.196;5.980;2022-11-30T01:18:08;20.30;;;13.73;;
54823;SDS011;40724;53.196;5.980;2022-11-30T01:20:34;16.95;;;12.70;;
54823;SDS011;40724;53.196;5.980;2022-11-30T01:23:00;19.23;;;12.77;;
54823;SDS011;40724;53.196;5.980;2022-11-30T01:25:26;22.60;;;14.07;;
54823;SDS011;40724;53.196;5.980;2022-11-30T01:27:52;21.42;;;14.15;;
54823;SDS011;40724;53.196;5.980;2022-11-30T01:30:18;20.67;;;14.25;;
54823;SDS011;40724;53.196;5.980;2022-11-30T01:32:45;19.15;;;13.77;;
54823;SDS011;40724;53.196;5.980;2022-11-30T01:35:11;23.75;;;14.43;;
54823;SDS011;40724;53.196;5.980;2022-11-30T01:37:37;19.25;;;13.18;;
54823;SDS011;40724;53.196;5.980;2022-11-30T01:40:03;21.23;;;15.30;;
54823;SDS011;40724;53.196;5.980;2022-11-30T01:42:30;21.52;;;15.77;;
54823;SDS011;40724;53.196;5.980;2022-11-30T01:44:57;21.63;;;15.07;;
54823;SDS011;40724;53.196;5.980;2022-11-30T01:47:43;18.25;;;13.10;;
54823;SDS011;40724;53.196;5.980;2022-11-30T01:50:12;19.67;;;13.73;;
54823;SDS011;40724;53.196;5.980;2022-11-30T01:52:42;19.92;;;14.82;;
54823;SDS011;40724;53.196;5.980;2022-11-30T01:57:39;21.90;;;14.23;;
54823;SDS011;40724;53.196;5.980;2022-11-30T02:00:08;21.05;;;14.00;;
54823;SDS011;40724;53.196;5.980;2022-11-30T02:02:41;21.27;;;14.00;;
54823;SDS011;40724;53.196;5.980;2022-11-30T02:05:12;23.60;;;16.15;;
54823;SDS011;40724;53.196;5.980;2022-11-30T02:07:39;21.42;;;15.55;;
54823;SDS011;40724;53.196;5.980;2022-11-30T02:10:06;24.20;;;15.18;;
54823;SDS011;40724;53.196;5.980;2022-11-30T02:15:10;22.70;;;14.95;;
54823;SDS011;40724;53.196;5.980;2022-11-30T02:17:41;20.58;;;14.43;;
54823;SDS011;40724;53.196;5.980;2022-11-30T02:30:25;20.20;;;14.77;;
54823;SDS011;40724;53.196;5.980;2022-11-30T02:33:07;24.15;;;16.23;;
54823;SDS011;40724;53.196;5.980;2022-11-30T02:35:35;23.05;;;14.88;;
54823;SDS011;40724;53.196;5.980;2022-11-30T02:38:03;21.38;;;13.43;;
54823;SDS011;40724;53.196;5.980;2022-11-30T02:40:30;18.70;;;14.00;;
54823;SDS011;40724;53.196;5.980;2022-11-30T02:42:56;20.45;;;14.25;;
54823;SDS011;40724;53.196;5.980;2022-11-30T02:45:32;21.67;;;14.02;;
54823;SDS011;40724;53.196;5.980;2022-11-30T02:50:48;14.43;;;9.73;;
54823;SDS011;40724;53.196;5.980;2022-11-30T02:53:15;16.15;;;11.10;;
54823;SDS011;40724;53.196;5.980;2022-11-30T02:55:41;17.88;;;12.02;;
54823;SDS011;40724;53.196;5.980;2022-11-30T02:58:07;16.83;;;12.25;;
54823;SDS011;40724;53.196;5.980;2022-11-30T03:00:33;15.23;;;12.02;;
54823;SDS011;40724;53.196;5.980;2022-11-30T03:03:00;16.48;;;10.98;;
54823;SDS011;40724;53.196;5.980;2022-11-30T03:05:26;16.30;;;12.02;;
54823;SDS011;40724;53.196;5.980;2022-11-30T03:07:52;14.23;;;10.98;;
54823;SDS011;40724;53.196;5.980;2022-11-30T03:10:18;17.33;;;12.07;;
54823;SDS011;40724;53.196;5.980;2022-11-30T03:12:44;18.02;;;12.40;;
54823;SDS011;40724;53.196;5.980;2022-11-30T03:15:10;16.35;;;11.73;;
54823;SDS011;40724;53.196;5.980;2022-11-30T03:17:37;19.42;;;11.10;;
54823;SDS011;40724;53.196;5.980;2022-11-30T03:20:03;18.70;;;11.88;;
54823;SDS011;40724;53.196;5.980;2022-11-30T03:22:29;22.35;;;14.30;;
54823;SDS011;40724;53.196;5.980;2022-11-30T03:24:55;18.58;;;12.77;;
54823;SDS011;40724;53.196;5.980;2022-11-30T03:27:22;18.92;;;13.20;;
54823;SDS011;40724;53.196;5.980;2022-11-30T03:29:48;21.30;;;13.80;;
54823;SDS011;40724;53.196;5.980;2022-11-30T03:32:14;38.58;;;13.40;;
54823;SDS011;40724;53.196;5.980;2022-11-30T03:34:40;16.98;;;11.95;;
54823;SDS011;40724;53.196;5.980;2022-11-30T03:37:06;24.02;;;12.15;;
54823;SDS011;40724;53.196;5.980;2022-11-30T03:39:32;15.43;;;10.35;;
54823;SDS011;40724;53.196;5.980;2022-11-30T03:41:58;22.80;;;12.40;;
54823;SDS011;40724;53.196;5.980;2022-11-30T03:44:24;14.85;;;9.75;;
54823;SDS011;40724;53.196;5.980;2022-11-30T03:46:50;15.27;;;10.40;;
54823;SDS011;40724;53.196;5.980;2022-11-30T03:49:16;16.20;;;8.85;;
54823;SDS011;40724;53.196;5.980;2022-11-30T03:51:43;15.43;;;9.27;;
54823;SDS011;40724;53.196;5.980;2022-11-30T03:54:09;25.75;;;11.73;;
54823;SDS011;40724;53.196;5.980;2022-11-30T03:56:35;16.27;;;10.60;;
54823;SDS011;40724;53.196;5.980;2022-11-30T03:59:01;24.08;;;11.80;;
54823;SDS011;40724;53.196;5.980;2022-11-30T04:01:27;18.90;;;11.20;;
54823;SDS011;40724;53.196;5.980;2022-11-30T04:03:53;14.90;;;10.68;;
54823;SDS011;40724;53.196;5.980;2022-11-30T04:06:19;12.85;;;9.93;;
54823;SDS011;40724;53.196;5.980;2022-11-30T04:08:46;55.33;;;14.20;;
54823;SDS011;40724;53.196;5.980;2022-11-30T04:11:12;25.63;;;11.93;;
54823;SDS011;40724;53.196;5.980;2022-11-30T04:13:39;28.55;;;13.73;;
54823;SDS011;40724;53.196;5.980;2022-11-30T04:16:05;24.23;;;9.52;;
54823;SDS011;40724;53.196;5.980;2022-11-30T04:18:32;15.75;;;9.25;;
54823;SDS011;40724;53.196;5.980;2022-11-30T04:20:59;37.42;;;12.75;;
54823;SDS011;40724;53.196;5.980;2022-11-30T04:23:28;29.50;;;11.70;;
54823;SDS011;40724;53.196;5.980;2022-11-30T04:25:55;29.55;;;11.00;;
54823;SDS011;40724;53.196;5.980;2022-11-30T04:28:21;13.98;;;9.80;;
54823;SDS011;40724;53.196;5.980;2022-11-30T04:30:47;12.88;;;10.20;;
54823;SDS011;40724;53.196;5.980;2022-11-30T04:33:13;16.30;;;11.43;;
54823;SDS011;40724;53.196;5.980;2022-11-30T04:35:52;17.73;;;10.95;;
54823;SDS011;40724;53.196;5.980;2022-11-30T04:38:19;10.60;;;9.02;;
54823;SDS011;40724;53.196;5.980;2022-11-30T04:40:45;13.73;;;9.77;;
54823;SDS011;40724;53.196;5.980;2022-11-30T04:43:11;11.13;;;8.82;;
54823;SDS011;40724;53.196;5.980;2022-11-30T04:45:37;11.23;;;8.70;;
54823;SDS011;40724;53.196;5.980;2022-11-30T04:48:04;11.32;;;8.80;;
54823;SDS011;40724;53.196;5.980;2022-11-30T04:50:30;14.13;;;8.60;;
54823;SDS011;40724;53.196;5.980;2022-11-30T04:52:57;10.02;;;8.40;;
54823;SDS011;40724;53.196;5.980;2022-11-30T04:55:23;12.07;;;8.55;;
54823;SDS011;40724;53.196;5.980;2022-11-30T04:57:49;9.65;;;7.07;;
54823;SDS011;40724;53.196;5.980;2022-11-30T05:00:15;11.80;;;9.25;;
54823;SDS011;40724;53.196;5.980;2022-11-30T05:02:42;11.43;;;9.10;;
54823;SDS011;40724;53.196;5.980;2022-11-30T05:05:08;12.75;;;9.27;;
54823;SDS011;40724;53.196;5.980;2022-11-30T05:07:34;12.13;;;9.23;;
54823;SDS011;40724;53.196;5.980;2022-11-30T05:10:01;12.38;;;8.68;;
54823;SDS011;40724;53.196;5.980;2022-11-30T05:12:27;10.07;;;7.55;;
54823;SDS011;40724;53.196;5.980;2022-11-30T05:14:53;11.13;;;8.52;;
54823;SDS011;40724;53.196;5.980;2022-11-30T05:17:19;12.55;;;9.88;;
54823;SDS011;40724;53.196;5.980;2022-11-30T05:19:45;9.52;;;8.05;;
54823;SDS011;40724;53.196;5.980;2022-11-30T05:22:11;11.10;;;8.13;;
54823;SDS011;40724;53.196;5.980;2022-11-30T05:24:37;12.02;;;9.68;;
54823;SDS011;40724;53.196;5.980;2022-11-30T05:27:03;13.60;;;8.15;;
54823;SDS011;40724;53.196;5.980;2022-11-30T05:29:29;13.65;;;10.00;;
54823;SDS011;40724;53.196;5.980;2022-11-30T05:31:55;14.05;;;9.63;;
54823;SDS011;40724;53.196;5.980;2022-11-30T05:34:22;12.05;;;9.23;;
54823;SDS011;40724;53.196;5.980;2022-11-30T05:36:48;11.73;;;9.20;;
54823;SDS011;40724;53.196;5.980;2022-11-30T05:39:14;15.70;;;10.18;;
54823;SDS011;40724;53.196;5.980;2022-11-30T05:41:40;14.75;;;9.95;;
54823;SDS011;40724;53.196;5.980;2022-11-30T05:44:07;16.73;;;10.45;;
54823;SDS011;40724;53.196;5.980;2022-11-30T05:46:33;13.60;;;10.25;;
54823;SDS011;40724;53.196;5.980;2022-11-30T05:48:59;14.82;;;8.88;;
54823;SDS011;40724;53.196;5.980;2022-11-30T05:51:25;15.00;;;10.43;;
54823;SDS011;40724;53.196;5.980;2022-11-30T05:53:51;13.00;;;10.25;;
54823;SDS011;40724;53.196;5.980;2022-11-30T05:56:18;13.57;;;10.38;;
54823;SDS011;40724;53.196;5.980;2022-11-30T05:58:45;11.75;;;9.63;;
54823;SDS011;40724;53.196;5.980;2022-11-30T06:01:18;13.05;;;10.57;;
54823;SDS011;40724;53.196;5.980;2022-11-30T06:03:45;13.68;;;9.60;;
54823;SDS011;40724;53.196;5.980;2022-11-30T06:06:11;16.67;;;9.80;;
54823;SDS011;40724;53.196;5.980;2022-11-30T06:08:37;14.13;;;9.23;;
54823;SDS011;40724;53.196;5.980;2022-11-30T06:11:03;16.10;;;11.45;;
54823;SDS011;40724;53.196;5.980;2022-11-30T06:13:29;14.23;;;10.60;;
54823;SDS011;40724;53.196;5.980;2022-11-30T06:15:59;14.18;;;10.35;;
54823;SDS011;40724;53.196;5.980;2022-11-30T06:18:25;11.75;;;9.27;;
54823;SDS011;40724;53.196;5.980;2022-11-30T06:20:51;12.13;;;9.77;;
54823;SDS011;40724;53.196;5.980;2022-11-30T06:23:17;16.15;;;10.18;;
54823;SDS011;40724;53.196;5.980;2022-11-30T06:25:43;15.23;;;10.57;;
54823;SDS011;40724;53.196;5.980;2022-11-30T06:28:09;14.60;;;10.45;;
54823;SDS011;40724;53.196;5.980;2022-11-30T06:30:36;17.27;;;10.40;;
54823;SDS011;40724;53.196;5.980;2022-11-30T06:33:02;16.67;;;11.48;;
54823;SDS011;40724;53.196;5.980;2022-11-30T06:35:28;19.13;;;12.15;;
54823;SDS011;40724;53.196;5.980;2022-11-30T06:37:55;20.55;;;10.18;;
54823;SDS011;40724;53.196;5.980;2022-11-30T06:40:24;16.17;;;10.68;;
54823;SDS011;40724;53.196;5.980;2022-11-30T06:42:51;16.38;;;11.20;;
54823;SDS011;40724;53.196;5.980;2022-11-30T06:45:17;15.38;;;11.65;;
54823;SDS011;40724;53.196;5.980;2022-11-30T06:47:43;17.10;;;11.60;;
54823;SDS011;40724;53.196;5.980;2022-11-30T06:50:09;19.90;;;12.95;;
54823;SDS011;40724;53.196;5.980;2022-11-30T06:52:37;16.75;;;11.88;;
54823;SDS011;40724;53.196;5.980;2022-11-30T06:55:04;17.10;;;11.68;;
54823;SDS011;40724;53.196;5.980;2022-11-30T06:57:30;16.73;;;12.30;;
54823;SDS011;40724;53.196;5.980;2022-11-30T06:59:56;18.95;;;13.20;;
54823;SDS011;40724;53.196;5.980;2022-11-30T07:02:22;18.15;;;14.13;;
54823;SDS011;40724;53.196;5.980;2022-11-30T07:04:49;20.63;;;14.10;;
54823;SDS011;40724;53.196;5.980;2022-11-30T07:07:15;22.02;;;14.93;;
54823;SDS011;40724;53.196;5.980;2022-11-30T07:09:41;20.38;;;14.25;;
54823;SDS011;40724;53.196;5.980;2022-11-30T07:12:07;21.05;;;13.52;;
54823;SDS011;40724;53.196;5.980;2022-11-30T07:14:33;20.33;;;13.88;;
54823;SDS011;40724;53.196;5.980;2022-11-30T07:16:59;19.77;;;12.18;;
54823;SDS011;40724;53.196;5.980;2022-11-30T07:19:29;20.83;;;13.43;;
54823;SDS011;40724;53.196;5.980;2022-11-30T07:21:56;17.65;;;12.57;;
54823;SDS011;40724;53.196;5.980;2022-11-30T07:24:22;20.05;;;14.65;;
54823;SDS011;40724;53.196;5.980;2022-11-30T07:27:07;22.30;;;14.27;;
54823;SDS011;40724;53.196;5.980;2022-11-30T07:29:34;24.50;;;15.75;;
54823;SDS011;40724;53.196;5.980;2022-11-30T07:32:00;21.33;;;16.23;;
54823;SDS011;40724;53.196;5.980;2022-11-30T07:34:26;20.67;;;14.82;;
54823;SDS011;40724;53.196;5.980;2022-11-30T07:36:52;27.23;;;16.75;;
54823;SDS011;40724;53.196;5.980;2022-11-30T07:39:18;25.02;;;15.65;;
54823;SDS011;40724;53.196;5.980;2022-11-30T07:41:44;26.20;;;16.52;;
54823;SDS011;40724;53.196;5.980;2022-11-30T07:44:10;19.90;;;13.57;;
54823;SDS011;40724;53.196;5.980;2022-11-30T07:46:37;31.48;;;14.60;;
54823;SDS011;40724;53.196;5.980;2022-11-30T07:49:04;20.98;;;14.23;;
54823;SDS011;40724;53.196;5.980;2022-11-30T07:51:30;18.85;;;12.95;;
54823;SDS011;40724;53.196;5.980;2022-11-30T07:53:56;20.80;;;14.32;;
54823;SDS011;40724;53.196;5.980;2022-11-30T07:56:23;23.20;;;15.82;;
54823;SDS011;40724;53.196;5.980;2022-11-30T07:58:53;28.67;;;17.42;;
54823;SDS011;40724;53.196;5.980;2022-11-30T08:01:20;24.92;;;16.45;;
54823;SDS011;40724;53.196;5.980;2022-11-30T08:03:47;24.60;;;17.17;;
54823;SDS011;40724;53.196;5.980;2022-11-30T08:06:14;26.52;;;16.42;;
54823;SDS011;40724;53.196;5.980;2022-11-30T08:08:42;25.25;;;16.73;;
54823;SDS011;40724;53.196;5.980;2022-11-30T08:11:10;23.52;;;16.35;;
54823;SDS011;40724;53.196;5.980;2022-11-30T08:13:36;22.70;;;14.63;;
54823;SDS011;40724;53.196;5.980;2022-11-30T08:16:03;21.95;;;16.92;;
54823;SDS011;40724;53.196;5.980;2022-11-30T08:18:30;25.65;;;15.70;;
54823;SDS011;40724;53.196;5.980;2022-11-30T08:21:00;19.35;;;14.02;;
54823;SDS011;40724;53.196;5.980;2022-11-30T08:23:27;23.13;;;14.77;;
54823;SDS011;40724;53.196;5.980;2022-11-30T08:25:53;22.50;;;14.85;;
54823;SDS011;40724;53.196;5.980;2022-11-30T08:28:19;18.80;;;14.50;;
54823;SDS011;40724;53.196;5.980;2022-11-30T08:30:46;24.33;;;15.60;;
54823;SDS011;40724;53.196;5.980;2022-11-30T08:33:12;25.42;;;16.40;;
54823;SDS011;40724;53.196;5.980;2022-11-30T08:35:38;27.33;;;17.00;;
54823;SDS011;40724;53.196;5.980;2022-11-30T08:38:04;35.08;;;19.27;;
54823;SDS011;40724;53.196;5.980;2022-11-30T08:40:30;30.23;;;18.85;;
54823;SDS011;40724;53.196;5.980;2022-11-30T08:42:57;26.52;;;16.80;;
54823;SDS011;40724;53.196;5.980;2022-11-30T08:45:24;28.52;;;18.88;;
54823;SDS011;40724;53.196;5.980;2022-11-30T08:47:50;24.20;;;17.92;;
54823;SDS011;40724;53.196;5.980;2022-11-30T08:50:16;33.20;;;20.73;;
54823;SDS011;40724;53.196;5.980;2022-11-30T08:52:42;26.92;;;17.83;;
54823;SDS011;40724;53.196;5.980;2022-11-30T08:55:08;30.77;;;17.55;;
54823;SDS011;40724;53.196;5.980;2022-11-30T08:57:34;27.40;;;18.30;;
54823;SDS011;40724;53.196;5.980;2022-11-30T09:00:00;32.30;;;19.10;;
54823;SDS011;40724;53.196;5.980;2022-11-30T09:02:26;28.42;;;19.30;;
54823;SDS011;40724;53.196;5.980;2022-11-30T09:04:52;35.90;;;19.98;;
54823;SDS011;40724;53.196;5.980;2022-11-30T09:07:19;33.80;;;20.27;;
54823;SDS011;40724;53.196;5.980;2022-11-30T09:09:45;32.20;;;19.40;;
54823;SDS011;40724;53.196;5.980;2022-11-30T09:12:11;30.88;;;22.25;;
54823;SDS011;40724;53.196;5.980;2022-11-30T09:14:37;36.17;;;20.70;;
54823;SDS011;40724;53.196;5.980;2022-11-30T09:17:03;35.00;;;22.20;;
54823;SDS011;40724;53.196;5.980;2022-11-30T09:19:29;39.50;;;22.73;;
54823;SDS011;40724;53.196;5.980;2022-11-30T09:21:55;37.13;;;21.45;;
54823;SDS011;40724;53.196;5.980;2022-11-30T09:24:21;32.00;;;22.40;;
54823;SDS011;40724;53.196;5.980;2022-11-30T09:26:47;35.25;;;20.42;;
54823;SDS011;40724;53.196;5.980;2022-11-30T09:29:14;30.05;;;20.42;;
54823;SDS011;40724;53.196;5.980;2022-11-30T09:31:40;37.72;;;22.20;;
54823;SDS011;40724;53.196;5.980;2022-11-30T09:34:06;30.77;;;20.00;;
54823;SDS011;40724;53.196;5.980;2022-11-30T09:36:32;37.38;;;23.25;;
54823;SDS011;40724;53.196;5.980;2022-11-30T09:38:58;32.03;;;21.58;;
54823;SDS011;40724;53.196;5.980;2022-11-30T09:46:39;35.08;;;22.75;;
54823;SDS011;40724;53.196;5.980;2022-11-30T09:54:10;30.48;;;18.73;;
54823;SDS011;40724;53.196;5.980;2022-11-30T09:56:37;40.92;;;26.52;;
54823;SDS011;40724;53.196;5.980;2022-11-30T10:02:01;37.28;;;23.65;;
54823;SDS011;40724;53.196;5.980;2022-11-30T10:04:31;37.63;;;23.30;;
54823;SDS011;40724;53.196;5.980;2022-11-30T10:12:23;40.20;;;24.77;;
54823;SDS011;40724;53.196;5.980;2022-11-30T10:14:56;33.10;;;22.33;;
54823;SDS011;40724;53.196;5.980;2022-11-30T10:17:40;39.65;;;23.02;;
54823;SDS011;40724;53.196;5.980;2022-11-30T10:20:10;37.13;;;23.05;;
54823;SDS011;40724;53.196;5.980;2022-11-30T10:27:48;36.87;;;24.47;;
54823;SDS011;40724;53.196;5.980;2022-11-30T10:30:17;42.03;;;23.58;;
54823;SDS011;40724;53.196;5.980;2022-11-30T10:32:47;42.15;;;24.48;;
54823;SDS011;40724;53.196;5.980;2022-11-30T10:35:57;39.45;;;24.70;;
54823;SDS011;40724;53.196;5.980;2022-11-30T10:38:13;39.88;;;24.42;;
54823;SDS011;40724;53.196;5.980;2022-11-30T10:40:49;41.08;;;26.05;;
54823;SDS011;40724;53.196;5.980;2022-11-30T10:43:18;38.88;;;25.88;;
54823;SDS011;40724;53.196;5.980;2022-11-30T10:45:48;39.13;;;25.88;;
54823;SDS011;40724;53.196;5.980;2022-11-30T10:48:26;42.67;;;24.05;;
54823;SDS011;40724;53.196;5.980;2022-11-30T10:50:53;41.72;;;26.60;;
54823;SDS011;40724;53.196;5.980;2022-11-30T10:53:20;46.00;;;26.98;;
54823;SDS011;40724;53.196;5.980;2022-11-30T10:55:59;39.72;;;25.17;;
54823;SDS011;40724;53.196;5.980;2022-11-30T10:58:28;38.78;;;26.33;;
54823;SDS011;40724;53.196;5.980;2022-11-30T11:01:02;40.95;;;26.23;;
54823;SDS011;40724;53.196;5.980;2022-11-30T11:03:29;42.42;;;26.42;;
54823;SDS011;40724;53.196;5.980;2022-11-30T11:08:36;44.22;;;25.83;;
54823;SDS011;40724;53.196;5.980;2022-11-30T11:11:02;46.60;;;29.27;;
54823;SDS011;40724;53.196;5.980;2022-11-30T11:13:36;47.28;;;27.23;;
54823;SDS011;40724;53.196;5.980;2022-11-30T11:16:03;39.00;;;26.85;;
54823;SDS011;40724;53.196;5.980;2022-11-30T11:18:31;46.17;;;27.77;;
54823;SDS011;40724;53.196;5.980;2022-11-30T11:21:14;40.53;;;25.58;;
54823;SDS011;40724;53.196;5.980;2022-11-30T11:23:42;52.30;;;28.65;;
54823;SDS011;40724;53.196;5.980;2022-11-30T11:26:18;46.00;;;29.85;;
54823;SDS011;40724;53.196;5.980;2022-11-30T11:28:46;40.83;;;26.83;;
54823;SDS011;40724;53.196;5.980;2022-11-30T11:33:57;42.58;;;27.05;;
54823;SDS011;40724;53.196;5.980;2022-11-30T11:36:27;44.10;;;28.35;;
54823;SDS011;40724;53.196;5.980;2022-11-30T11:38:54;40.05;;;26.83;;
54823;SDS011;40724;53.196;5.980;2022-11-30T11:41:22;53.40;;;28.52;;
54823;SDS011;40724;53.196;5.980;2022-11-30T11:44:17;42.35;;;28.48;;
54823;SDS011;40724;53.196;5.980;2022-11-30T11:51:46;47.35;;;27.80;;
54823;SDS011;40724;53.196;5.980;2022-11-30T11:54:27;45.67;;;28.65;;
54823;SDS011;40724;53.196;5.980;2022-11-30T11:56:55;45.95;;;27.52;;
54823;SDS011;40724;53.196;5.980;2022-11-30T12:04:43;44.20;;;26.75;;
54823;SDS011;40724;53.196;5.980;2022-11-30T12:07:21;44.53;;;26.88;;
54823;SDS011;40724;53.196;5.980;2022-11-30T12:09:57;47.45;;;29.20;;
54823;SDS011;40724;53.196;5.980;2022-11-30T12:12:24;39.97;;;26.85;;
54823;SDS011;40724;53.196;5.980;2022-11-30T12:14:50;59.42;;;33.97;;
54823;SDS011;40724;53.196;5.980;2022-11-30T12:17:24;58.45;;;36.53;;
54823;SDS011;40724;53.196;5.980;2022-11-30T12:25:20;45.38;;;31.10;;
54823;SDS011;40724;53.196;5.980;2022-11-30T12:34:20;53.58;;;28.83;;
54823;SDS011;40724;53.196;5.980;2022-11-30T12:38:55;50.15;;;30.65;;
54823;SDS011;40724;53.196;5.980;2022-11-30T12:49:53;49.30;;;29.27;;
54823;SDS011;40724;53.196;5.980;2022-11-30T12:57:32;53.38;;;31.85;;
54823;SDS011;40724;53.196;5.980;2022-11-30T13:05:25;56.70;;;33.88;;
54823;SDS011;40724;53.196;5.980;2022-11-30T13:08:04;60.58;;;33.63;;
54823;SDS011;40724;53.196;5.980;2022-11-30T13:10:35;55.88;;;32.00;;
54823;SDS011;40724;53.196;5.980;2022-11-30T13:13:01;52.95;;;32.17;;
54823;SDS011;40724;53.196;5.980;2022-11-30T13:15:29;54.42;;;31.38;;
54823;SDS011;40724;53.196;5.980;2022-11-30T13:17:58;56.75;;;33.47;;
54823;SDS011;40724;53.196;5.980;2022-11-30T13:25:48;65.15;;;37.22;;
54823;SDS011;40724;53.196;5.980;2022-11-30T13:36:05;59.00;;;34.85;;
54823;SDS011;40724;53.196;5.980;2022-11-30T13:38:46;59.45;;;35.13;;
54823;SDS011;40724;53.196;5.980;2022-11-30T13:41:17;61.70;;;36.95;;
54823;SDS011;40724;53.196;5.980;2022-11-30T13:43:45;62.28;;;36.53;;
54823;SDS011;40724;53.196;5.980;2022-11-30T13:46:18;68.28;;;37.90;;
54823;SDS011;40724;53.196;5.980;2022-11-30T13:48:45;52.70;;;34.72;;
54823;SDS011;40724;53.196;5.980;2022-11-30T13:51:12;56.28;;;34.35;;
54823;SDS011;40724;53.196;5.980;2022-11-30T13:53:38;59.40;;;34.67;;
54823;SDS011;40724;53.196;5.980;2022-11-30T13:56:06;59.05;;;36.78;;
54823;SDS011;40724;53.196;5.980;2022-11-30T14:01:35;63.13;;;36.63;;
54823;SDS011;40724;53.196;5.980;2022-11-30T14:09:13;58.92;;;35.70;;
54823;SDS011;40724;53.196;5.980;2022-11-30T14:11:43;60.53;;;35.20;;
54823;SDS011;40724;53.196;5.980;2022-11-30T14:16:54;60.08;;;34.22;;
54823;SDS011;40724;53.196;5.980;2022-11-30T14:19:21;66.35;;;35.00;;
54823;SDS011;40724;53.196;5.980;2022-11-30T14:21:48;65.57;;;37.00;;
54823;SDS011;40724;53.196;5.980;2022-11-30T14:24:18;56.03;;;35.08;;
54823;SDS011;40724;53.196;5.980;2022-11-30T14:26:45;64.28;;;38.50;;
54823;SDS011;40724;53.196;5.980;2022-11-30T14:29:32;65.05;;;37.42;;
54823;SDS011;40724;53.196;5.980;2022-11-30T14:32:02;59.33;;;34.70;;
54823;SDS011;40724;53.196;5.980;2022-11-30T14:34:35;58.40;;;32.00;;
54823;SDS011;40724;53.196;5.980;2022-11-30T14:37:11;54.45;;;32.35;;
54823;SDS011;40724;53.196;5.980;2022-11-30T14:39:42;56.03;;;32.40;;
54823;SDS011;40724;53.196;5.980;2022-11-30T14:42:28;49.22;;;31.95;;
54823;SDS011;40724;53.196;5.980;2022-11-30T14:44:55;53.30;;;32.92;;
54823;SDS011;40724;53.196;5.980;2022-11-30T14:49:48;48.50;;;31.50;;
54823;SDS011;40724;53.196;5.980;2022-11-30T14:52:20;53.10;;;32.53;;
54823;SDS011;40724;53.196;5.980;2022-11-30T14:57:50;54.95;;;32.95;;
54823;SDS011;40724;53.196;5.980;2022-11-30T15:00:17;50.60;;;31.33;;
54823;SDS011;40724;53.196;5.980;2022-11-30T15:02:44;52.30;;;33.25;;
54823;SDS011;40724;53.196;5.980;2022-11-30T15:05:13;55.90;;;31.17;;
54823;SDS011;40724;53.196;5.980;2022-11-30T15:07:41;49.75;;;32.90;;
54823;SDS011;40724;53.196;5.980;2022-11-30T15:10:27;53.63;;;32.15;;
54823;SDS011;40724;53.196;5.980;2022-11-30T15:12:54;49.92;;;32.35;;
54823;SDS011;40724;53.196;5.980;2022-11-30T15:15:22;48.28;;;31.38;;
54823;SDS011;40724;53.196;5.980;2022-11-30T15:20:18;52.80;;;32.90;;
54823;SDS011;40724;53.196;5.980;2022-11-30T15:22:44;55.15;;;33.35;;
54823;SDS011;40724;53.196;5.980;2022-11-30T15:25:11;56.13;;;32.85;;
54823;SDS011;40724;53.196;5.980;2022-11-30T15:27:37;49.22;;;30.38;;
54823;SDS011;40724;53.196;5.980;2022-11-30T15:30:04;59.05;;;34.92;;
54823;SDS011;40724;53.196;5.980;2022-11-30T15:32:31;52.58;;;32.55;;
54823;SDS011;40724;53.196;5.980;2022-11-30T15:34:57;60.70;;;31.35;;
54823;SDS011;40724;53.196;5.980;2022-11-30T15:37:32;59.08;;;33.63;;
54823;SDS011;40724;53.196;5.980;2022-11-30T15:39:59;55.78;;;33.42;;
54823;SDS011;40724;53.196;5.980;2022-11-30T15:42:29;58.05;;;33.80;;
54823;SDS011;40724;53.196;5.980;2022-11-30T15:47:53;60.60;;;33.70;;
54823;SDS011;40724;53.196;5.980;2022-11-30T15:52:59;58.25;;;34.95;;
54823;SDS011;40724;53.196;5.980;2022-11-30T15:55:41;60.40;;;37.70;;
54823;SDS011;40724;53.196;5.980;2022-11-30T16:01:06;68.60;;;37.58;;
54823;SDS011;40724;53.196;5.980;2022-11-30T16:03:34;73.65;;;41.15;;
54823;SDS011;40724;53.196;5.980;2022-11-30T16:06:02;65.80;;;40.70;;
54823;SDS011;40724;53.196;5.980;2022-11-30T16:08:31;65.63;;;37.35;;
54823;SDS011;40724;53.196;5.980;2022-11-30T16:10:57;64.07;;;39.15;;
54823;SDS011;40724;53.196;5.980;2022-11-30T16:13:23;61.95;;;38.25;;
54823;SDS011;40724;53.196;5.980;2022-11-30T16:15:54;63.30;;;36.10;;
54823;SDS011;40724;53.196;5.980;2022-11-30T16:18:24;62.80;;;36.42;;
54823;SDS011;40724;53.196;5.980;2022-11-30T16:20:56;61.03;;;37.40;;
54823;SDS011;40724;53.196;5.980;2022-11-30T16:23:22;57.85;;;34.20;;
54823;SDS011;40724;53.196;5.980;2022-11-30T16:25:49;58.03;;;34.88;;
54823;SDS011;40724;53.196;5.980;2022-11-30T16:28:16;64.57;;;35.83;;
54823;SDS011;40724;53.196;5.980;2022-11-30T16:30:43;60.30;;;36.72;;
54823;SDS011;40724;53.196;5.980;2022-11-30T16:33:17;60.42;;;35.95;;
54823;SDS011;40724;53.196;5.980;2022-11-30T16:36:28;65.63;;;37.38;;
54823;SDS011;40724;53.196;5.980;2022-11-30T16:38:30;67.10;;;37.60;;